createdAt,value
2017-10-22T00:01:04.513Z,12.10
2017-10-22T00:03:32.065Z,12.10
2017-10-22T00:05:59.569Z,12.20
2017-10-22T00:08:27.123Z,12.20
2017-10-22T00:10:55.424Z,12.10
2017-10-22T00:13:22.973Z,12.10
2017-10-22T00:15:50.574Z,12.10
2017-10-22T00:18:18.093Z,12.00
2017-10-22T00:20:45.729Z,11.90
2017-10-22T00:23:13.251Z,11.90
2017-10-22T00:25:40.784Z,11.80
2017-10-22T00:28:08.296Z,11.80
2017-10-22T00:30:35.827Z,11.80
2017-10-22T00:33:03.374Z,11.80
2017-10-22T00:35:30.892Z,11.80
2017-10-22T00:37:58.397Z,11.80
2017-10-22T00:40:25.960Z,11.80
2017-10-22T00:42:53.463Z,11.80
2017-10-22T00:45:21.073Z,11.80
2017-10-22T00:47:48.597Z,11.90
2017-10-22T00:50:16.158Z,11.90
2017-10-22T00:52:44.446Z,11.90
2017-10-22T00:55:12.006Z,11.90
2017-10-22T00:57:39.573Z,11.80
2017-10-22T01:00:07.072Z,11.80
2017-10-22T01:02:34.602Z,11.70
2017-10-22T01:05:02.171Z,11.80
2017-10-22T01:07:29.666Z,11.80
2017-10-22T01:09:57.249Z,11.80
2017-10-22T01:12:24.795Z,11.80
2017-10-22T01:14:53.223Z,11.90
2017-10-22T01:17:20.777Z,11.90
2017-10-22T01:19:48.293Z,12.00
2017-10-22T01:22:16.444Z,12.00
2017-10-22T01:24:43.997Z,12.10
2017-10-22T01:27:11.561Z,12.20
2017-10-22T01:29:39.069Z,12.20
2017-10-22T01:32:06.636Z,12.30
2017-10-22T01:34:34.136Z,12.30
2017-10-22T01:37:01.704Z,12.30
2017-10-22T01:39:29.204Z,12.20
2017-10-22T01:41:56.724Z,12.10
2017-10-22T01:44:24.541Z,12.10
2017-10-22T01:46:52.044Z,11.90
2017-10-22T01:49:19.580Z,12.00
2017-10-22T01:51:47.098Z,12.00
2017-10-22T01:54:14.729Z,12.00
2017-10-22T01:56:42.276Z,12.00
2017-10-22T01:59:09.790Z,11.90
2017-10-22T02:01:37.336Z,11.90
2017-10-22T02:04:04.862Z,11.90
2017-10-22T02:06:32.424Z,11.90
2017-10-22T02:08:59.956Z,11.80
2017-10-22T02:11:27.564Z,11.90
2017-10-22T02:13:55.853Z,12.00
2017-10-22T02:16:23.351Z,12.00
2017-10-22T02:18:50.990Z,12.00
2017-10-22T02:21:18.561Z,12.00
2017-10-22T02:23:46.152Z,11.90
2017-10-22T02:26:14.384Z,11.90
2017-10-22T02:28:41.960Z,12.00
2017-10-22T02:31:09.521Z,11.80
2017-10-22T02:33:37.053Z,11.80
2017-10-22T02:36:04.582Z,11.70
2017-10-22T02:38:32.845Z,11.60
2017-10-22T02:41:00.431Z,11.60
2017-10-22T02:43:28.002Z,11.60
2017-10-22T02:45:55.536Z,11.70
2017-10-22T02:48:23.880Z,11.60
2017-10-22T02:50:51.410Z,11.60
2017-10-22T02:53:18.978Z,11.70
2017-10-22T02:55:46.524Z,11.70
2017-10-22T02:58:14.038Z,11.70
2017-10-22T03:00:41.576Z,11.70
2017-10-22T03:03:09.123Z,11.70
2017-10-22T03:05:36.689Z,11.70
2017-10-22T03:08:04.204Z,11.80
2017-10-22T03:10:31.852Z,11.80
2017-10-22T03:12:59.410Z,11.80
2017-10-22T03:15:27.696Z,11.90
2017-10-22T03:17:55.252Z,11.90
2017-10-22T03:20:23.743Z,11.90
2017-10-22T03:22:51.339Z,12.00
2017-10-22T03:25:18.917Z,12.00
2017-10-22T03:27:46.420Z,12.10
2017-10-22T03:30:14.002Z,12.10
2017-10-22T03:32:41.540Z,12.10
2017-10-22T03:35:09.863Z,12.10
2017-10-22T03:37:37.419Z,12.10
2017-10-22T03:40:04.969Z,12.10
2017-10-22T03:42:32.480Z,12.20
2017-10-22T03:44:59.995Z,12.20
2017-10-22T03:47:27.838Z,12.20
2017-10-22T03:49:55.338Z,12.20
2017-10-22T03:52:22.880Z,12.20
2017-10-22T03:54:50.480Z,12.20
2017-10-22T03:57:18.024Z,12.10
2017-10-22T03:59:45.572Z,12.20
2017-10-22T04:02:13.130Z,12.10
2017-10-22T04:04:40.713Z,12.10
2017-10-22T04:07:09.016Z,12.00
2017-10-22T04:09:36.564Z,12.10
2017-10-22T04:12:04.866Z,12.00
2017-10-22T04:14:32.431Z,11.90
2017-10-22T04:17:00.001Z,11.80
2017-10-22T04:19:27.504Z,11.70
2017-10-22T04:21:55.013Z,11.50
2017-10-22T04:24:22.554Z,11.40
2017-10-22T04:26:50.060Z,11.30
2017-10-22T04:29:17.699Z,11.30
2017-10-22T04:31:45.242Z,11.30
2017-10-22T04:34:12.764Z,11.30
2017-10-22T04:36:40.317Z,11.20
2017-10-22T04:39:07.853Z,11.20
2017-10-22T04:41:35.372Z,11.20
2017-10-22T04:44:02.884Z,11.20
2017-10-22T04:46:30.432Z,11.20
2017-10-22T04:48:58.009Z,11.30
2017-10-22T04:51:25.540Z,11.40
2017-10-22T04:53:53.081Z,11.40
2017-10-22T04:56:20.588Z,11.40
2017-10-22T04:58:48.123Z,11.40
2017-10-22T05:01:15.636Z,11.30
2017-10-22T05:03:43.164Z,11.20
2017-10-22T05:06:11.452Z,11.00
2017-10-22T05:08:39.739Z,10.90
2017-10-22T05:11:07.292Z,10.90
2017-10-22T05:13:35.547Z,10.70
2017-10-22T05:16:03.158Z,10.70
2017-10-22T05:18:30.678Z,10.60
2017-10-22T05:20:58.985Z,10.50
2017-10-22T05:23:26.489Z,10.50
2017-10-22T05:25:54.037Z,10.40
2017-10-22T05:28:21.529Z,10.30
2017-10-22T05:30:49.044Z,10.30
2017-10-22T05:33:16.774Z,10.20
2017-10-22T05:35:44.305Z,10.30
2017-10-22T05:38:12.580Z,10.10
2017-10-22T05:40:40.164Z,10.10
2017-10-22T05:43:07.704Z,10.10
2017-10-22T05:45:35.963Z,10.10
2017-10-22T05:48:03.504Z,10.10
2017-10-22T05:50:31.003Z,10.10
2017-10-22T05:52:59.293Z,10.40
2017-10-22T05:55:26.828Z,10.30
2017-10-22T05:57:55.485Z,10.50
2017-10-22T06:00:23.024Z,10.50
2017-10-22T06:02:50.515Z,10.40
2017-10-22T06:05:18.056Z,10.30
2017-10-22T06:07:45.545Z,10.50
2017-10-22T06:10:13.836Z,10.60
2017-10-22T06:12:41.374Z,10.60
2017-10-22T06:15:08.928Z,10.60
2017-10-22T06:17:41.411Z,10.70
2017-10-22T06:20:08.963Z,10.60
2017-10-22T06:22:36.484Z,10.50
2017-10-22T06:25:04.033Z,10.40
2017-10-22T06:27:31.604Z,10.30
2017-10-22T06:29:59.111Z,10.30
2017-10-22T06:32:27.393Z,10.70
2017-10-22T06:34:54.921Z,10.70
2017-10-22T06:37:22.431Z,11.00
2017-10-22T06:39:49.964Z,11.30
2017-10-22T06:42:17.505Z,11.80
2017-10-22T06:44:45.069Z,12.20
2017-10-22T06:47:12.601Z,12.50
2017-10-22T06:49:40.111Z,12.50
2017-10-22T06:52:07.637Z,12.60
2017-10-22T06:54:35.624Z,12.70
2017-10-22T06:57:03.957Z,13.10
2017-10-22T06:59:31.476Z,13.10
2017-10-22T07:01:58.984Z,13.50
2017-10-22T07:04:26.526Z,14.00
2017-10-22T07:06:54.082Z,14.50
2017-10-22T07:09:21.601Z,14.60
2017-10-22T07:11:49.085Z,14.90
2017-10-22T07:14:16.643Z,15.30
2017-10-22T07:16:44.172Z,15.90
2017-10-22T07:19:12.448Z,15.90
2017-10-22T07:21:39.943Z,15.90
2017-10-22T07:24:07.463Z,15.40
2017-10-22T07:26:35.008Z,14.70
2017-10-22T07:29:02.563Z,14.20
2017-10-22T07:31:30.113Z,13.90
2017-10-22T07:33:57.629Z,13.60
2017-10-22T07:36:25.189Z,13.40
2017-10-22T07:38:52.701Z,13.30
2017-10-22T07:41:20.260Z,13.10
2017-10-22T07:43:47.799Z,13.00
2017-10-22T07:46:15.343Z,13.00
2017-10-22T07:48:42.897Z,12.80
2017-10-22T07:51:10.478Z,12.60
2017-10-22T07:53:38.029Z,12.50
2017-10-22T07:56:05.552Z,12.50
2017-10-22T07:58:33.096Z,12.70
2017-10-22T08:01:01.416Z,13.20
2017-10-22T08:03:28.943Z,13.20
2017-10-22T08:05:56.477Z,13.50
2017-10-22T08:08:24.020Z,13.60
2017-10-22T08:10:51.554Z,13.70
2017-10-22T08:13:19.066Z,13.70
2017-10-22T08:15:47.368Z,14.10
2017-10-22T08:18:14.901Z,14.00
2017-10-22T08:20:43.230Z,14.40
2017-10-22T08:23:10.740Z,14.40
2017-10-22T08:25:39.069Z,14.00
2017-10-22T08:28:07.312Z,14.00
2017-10-22T08:30:34.826Z,14.00
2017-10-22T08:33:02.374Z,14.40
2017-10-22T08:35:29.917Z,14.50
2017-10-22T08:37:57.485Z,14.30
2017-10-22T08:40:25.008Z,14.20
2017-10-22T08:42:52.606Z,14.40
2017-10-22T08:45:20.160Z,14.50
2017-10-22T08:47:47.704Z,14.50
2017-10-22T08:50:15.255Z,14.60
2017-10-22T08:52:42.802Z,14.70
2017-10-22T08:55:10.378Z,15.10
2017-10-22T08:57:37.938Z,15.00
2017-10-22T09:00:05.512Z,15.40
2017-10-22T09:02:33.044Z,15.70
2017-10-22T09:05:00.592Z,15.50
2017-10-22T09:07:28.150Z,15.40
2017-10-22T09:09:56.411Z,16.00
2017-10-22T09:12:24.026Z,16.00
2017-10-22T09:14:51.541Z,15.80
2017-10-22T09:17:19.809Z,15.20
2017-10-22T09:19:48.100Z,15.10
2017-10-22T09:22:15.665Z,15.10
2017-10-22T09:24:43.232Z,15.20
2017-10-22T09:27:10.805Z,15.00
2017-10-22T09:29:38.345Z,15.10
2017-10-22T09:32:05.884Z,14.80
2017-10-22T09:34:33.438Z,14.60
2017-10-22T09:37:01.020Z,14.60
2017-10-22T09:39:28.580Z,14.40
2017-10-22T09:41:56.096Z,14.10
2017-10-22T09:44:23.677Z,14.30
2017-10-22T09:46:51.955Z,14.00
2017-10-22T09:49:19.606Z,14.00
2017-10-22T09:51:47.157Z,13.90
2017-10-22T09:54:14.664Z,13.80
2017-10-22T09:56:42.232Z,13.70
2017-10-22T09:59:09.792Z,13.70
2017-10-22T10:01:37.340Z,13.80
2017-10-22T10:04:04.919Z,13.90
2017-10-22T10:06:32.528Z,13.80
2017-10-22T10:09:00.082Z,13.90
2017-10-22T10:11:27.676Z,14.20
2017-10-22T10:13:55.280Z,13.90
2017-10-22T10:16:22.853Z,14.20
2017-10-22T10:18:50.377Z,14.50
2017-10-22T10:21:18.138Z,15.10
2017-10-22T10:23:45.731Z,15.80
2017-10-22T10:26:13.259Z,16.20
2017-10-22T10:28:40.791Z,16.00
2017-10-22T10:31:08.374Z,15.90
2017-10-22T10:33:35.899Z,16.50
2017-10-22T10:36:03.575Z,17.20
2017-10-22T10:38:31.218Z,16.70
2017-10-22T10:40:59.558Z,16.20
2017-10-22T10:43:27.880Z,15.40
2017-10-22T10:45:55.387Z,15.30
2017-10-22T10:48:23.741Z,14.90
2017-10-22T10:50:51.279Z,14.90
2017-10-22T10:53:19.180Z,14.90
2017-10-22T10:55:46.743Z,15.00
2017-10-22T10:58:15.066Z,15.30
2017-10-22T11:00:42.585Z,15.30
2017-10-22T11:03:10.926Z,15.60
2017-10-22T11:05:38.467Z,15.60
2017-10-22T11:08:05.976Z,15.70
2017-10-22T11:10:34.290Z,16.10
2017-10-22T11:13:01.813Z,16.10
2017-10-22T11:15:30.092Z,16.00
2017-10-22T11:17:58.452Z,15.70
2017-10-22T11:20:25.985Z,15.70
2017-10-22T11:22:53.476Z,15.80
2017-10-22T11:25:21.017Z,16.20
2017-10-22T11:27:48.523Z,17.00
2017-10-22T11:30:16.068Z,17.60
2017-10-22T11:32:44.341Z,17.80
2017-10-22T11:35:11.908Z,17.80
2017-10-22T11:37:40.200Z,18.50
2017-10-22T11:40:07.748Z,18.40
2017-10-22T11:42:36.162Z,18.10
2017-10-22T11:45:03.707Z,18.00
2017-10-22T11:47:31.244Z,18.40
2017-10-22T11:49:59.549Z,18.60
2017-10-22T11:52:27.109Z,18.60
2017-10-22T11:54:54.619Z,18.70
2017-10-22T11:57:22.159Z,18.40
2017-10-22T11:59:49.938Z,17.90
2017-10-22T12:02:17.568Z,17.50
2017-10-22T12:04:45.083Z,17.90
2017-10-22T12:07:13.426Z,18.10
2017-10-22T12:09:40.968Z,18.10
2017-10-22T12:12:08.512Z,17.50
2017-10-22T12:14:36.032Z,16.70
2017-10-22T12:17:04.391Z,15.20
2017-10-22T12:19:32.059Z,15.20
2017-10-22T12:21:59.573Z,14.90
2017-10-22T12:24:27.076Z,14.90
2017-10-22T12:26:54.637Z,15.20
2017-10-22T12:29:22.896Z,14.70
2017-10-22T12:31:51.678Z,14.50
2017-10-22T12:34:19.217Z,14.40
2017-10-22T12:36:46.848Z,14.30
2017-10-22T12:39:14.552Z,14.40
2017-10-22T12:41:42.051Z,14.30
2017-10-22T12:44:10.297Z,14.40
2017-10-22T12:46:38.596Z,14.40
2017-10-22T12:49:07.157Z,14.20
2017-10-22T12:51:34.655Z,14.20
2017-10-22T12:54:02.335Z,14.30
2017-10-22T12:56:29.852Z,14.50
2017-10-22T12:58:58.128Z,14.70
2017-10-22T13:01:26.437Z,14.70
2017-10-22T13:03:54.005Z,14.70
2017-10-22T13:06:21.553Z,14.70
2017-10-22T13:08:49.102Z,14.60
2017-10-22T13:11:17.405Z,14.70
2017-10-22T13:13:45.288Z,14.70
2017-10-22T13:16:12.801Z,14.60
2017-10-22T13:18:40.546Z,14.60
2017-10-22T13:21:08.145Z,14.80
2017-10-22T13:23:35.677Z,14.90
2017-10-22T13:26:03.969Z,15.90
2017-10-22T13:28:31.528Z,15.90
2017-10-22T13:30:59.062Z,16.10
2017-10-22T13:33:27.393Z,16.20
2017-10-22T13:35:54.937Z,16.20
2017-10-22T13:38:22.454Z,16.50
2017-10-22T13:40:50.020Z,16.60
2017-10-22T13:43:17.520Z,16.50
2017-10-22T13:45:45.033Z,16.20
2017-10-22T13:48:12.580Z,15.80
2017-10-22T13:50:40.356Z,15.20
2017-10-22T13:53:07.898Z,14.80
2017-10-22T13:55:35.641Z,13.90
2017-10-22T13:58:03.945Z,11.90
2017-10-22T14:00:31.516Z,11.90
2017-10-22T14:02:59.066Z,11.70
2017-10-22T14:05:27.001Z,11.70
2017-10-22T14:07:55.336Z,12.20
2017-10-22T14:10:22.836Z,12.20
2017-10-22T14:12:51.133Z,12.30
2017-10-22T14:15:18.669Z,12.30
2017-10-22T14:17:46.991Z,12.30
2017-10-22T14:20:14.520Z,12.30
2017-10-22T14:22:42.836Z,12.40
2017-10-22T14:25:10.348Z,12.50
2017-10-22T14:27:38.665Z,12.10
2017-10-22T14:30:06.209Z,12.00
2017-10-22T14:32:33.737Z,11.80
2017-10-22T14:35:02.157Z,11.70
2017-10-22T14:37:29.704Z,11.50
2017-10-22T14:39:57.204Z,11.40
2017-10-22T14:42:24.708Z,11.40
2017-10-22T14:44:52.277Z,11.30
2017-10-22T14:47:19.816Z,11.30
2017-10-22T14:49:47.373Z,11.30
2017-10-22T14:52:15.901Z,11.30
2017-10-22T14:54:43.457Z,11.20
2017-10-22T14:57:11.005Z,11.30
2017-10-22T14:59:38.532Z,11.30
2017-10-22T15:02:06.060Z,11.30
2017-10-22T15:04:33.596Z,11.30
2017-10-22T15:07:01.107Z,11.30
2017-10-22T15:09:29.366Z,11.30
2017-10-22T15:11:56.924Z,11.30
2017-10-22T15:14:24.449Z,11.20
2017-10-22T15:16:52.008Z,11.10
2017-10-22T15:19:19.551Z,10.90
2017-10-22T15:21:47.092Z,10.70
2017-10-22T15:24:14.644Z,10.50
2017-10-22T15:26:42.261Z,10.40
2017-10-22T15:29:09.765Z,10.20
2017-10-22T15:31:38.072Z,10.10
2017-10-22T15:34:05.563Z,10.10
2017-10-22T15:36:33.096Z,10.00
2017-10-22T15:39:00.811Z,9.90
2017-10-22T15:41:29.078Z,9.90
2017-10-22T15:43:56.617Z,9.80
2017-10-22T15:46:24.108Z,9.80
2017-10-22T15:48:51.598Z,9.80
2017-10-22T15:51:19.149Z,9.80
2017-10-22T15:53:46.648Z,9.70
2017-10-22T15:56:14.180Z,9.70
2017-10-22T15:58:42.094Z,9.80
2017-10-22T16:01:10.121Z,9.70
2017-10-22T16:03:37.652Z,9.80
2017-10-22T16:06:05.956Z,9.80
2017-10-22T16:08:33.498Z,9.80
2017-10-22T16:11:01.023Z,9.80
2017-10-22T16:13:28.589Z,9.80
2017-10-22T16:15:56.104Z,9.70
2017-10-22T16:18:23.667Z,9.70
2017-10-22T16:20:51.219Z,9.50
2017-10-22T16:23:18.732Z,9.40
2017-10-22T16:25:46.224Z,9.30
2017-10-22T16:28:13.764Z,9.20
2017-10-22T16:30:42.022Z,9.20
2017-10-22T16:33:10.328Z,9.30
2017-10-22T16:35:37.866Z,9.30
2017-10-22T16:38:05.399Z,9.30
2017-10-22T16:40:32.936Z,9.40
2017-10-22T16:43:00.445Z,9.50
2017-10-22T16:45:27.971Z,9.60
2017-10-22T16:47:55.502Z,9.70
2017-10-22T16:50:22.993Z,9.80
2017-10-22T16:52:50.542Z,9.80
2017-10-22T16:55:18.023Z,9.80
2017-10-22T16:57:45.613Z,9.80
2017-10-22T17:00:13.160Z,9.80
2017-10-22T17:02:41.460Z,9.80
2017-10-22T17:05:08.956Z,9.80
2017-10-22T17:07:36.488Z,9.80
2017-10-22T17:10:04.001Z,9.70
2017-10-22T17:12:32.295Z,9.80
2017-10-22T17:15:00.612Z,9.80
2017-10-22T17:17:28.110Z,9.70
2017-10-22T17:19:55.600Z,9.70
2017-10-22T17:22:23.121Z,9.60
2017-10-22T17:24:50.676Z,9.60
2017-10-22T17:27:18.208Z,9.50
2017-10-22T17:29:45.732Z,9.50
2017-10-22T17:32:13.244Z,9.50
2017-10-22T17:34:40.977Z,9.50
2017-10-22T17:37:08.524Z,9.50
2017-10-22T17:39:36.049Z,9.50
2017-10-22T17:42:03.573Z,9.60
2017-10-22T17:44:31.065Z,9.50
2017-10-22T17:46:58.596Z,9.60
2017-10-22T17:49:26.128Z,9.60
2017-10-22T17:51:54.402Z,9.60
2017-10-22T17:54:21.929Z,9.60
2017-10-22T17:56:49.426Z,9.60
2017-10-22T17:59:17.729Z,9.50
2017-10-22T18:01:45.296Z,9.40
2017-10-22T18:04:13.684Z,9.50
2017-10-22T18:06:41.213Z,9.50
2017-10-22T18:09:08.703Z,9.60
2017-10-22T18:11:36.317Z,9.50
2017-10-22T18:14:03.794Z,9.50
2017-10-22T18:16:31.313Z,9.50
2017-10-22T18:18:58.830Z,9.50
2017-10-22T18:21:26.345Z,9.40
2017-10-22T18:23:54.701Z,9.30
2017-10-22T18:26:22.218Z,9.30
2017-10-22T18:28:49.773Z,9.20
2017-10-22T18:31:17.271Z,9.10
2017-10-22T18:33:44.829Z,9.10
2017-10-22T18:36:12.367Z,9.10
2017-10-22T18:38:39.877Z,9.10
2017-10-22T18:41:08.290Z,9.00
2017-10-22T18:43:35.811Z,9.00
2017-10-22T18:46:03.305Z,8.90
2017-10-22T18:48:30.820Z,8.90
2017-10-22T18:50:58.393Z,8.80
2017-10-22T18:53:25.893Z,8.80
2017-10-22T18:55:53.416Z,8.80
2017-10-22T18:58:20.964Z,8.80
2017-10-22T19:00:49.277Z,8.90
2017-10-22T19:03:16.817Z,8.90
2017-10-22T19:05:44.352Z,8.90
2017-10-22T19:08:11.854Z,9.00
2017-10-22T19:10:39.342Z,9.00
2017-10-22T19:13:06.898Z,9.10
2017-10-22T19:15:34.415Z,9.20
2017-10-22T19:18:01.915Z,9.30
2017-10-22T19:20:29.481Z,9.30
2017-10-22T19:22:56.989Z,9.30
2017-10-22T19:25:24.532Z,9.40
2017-10-22T19:27:52.820Z,9.40
2017-10-22T19:30:20.369Z,9.40
2017-10-22T19:32:48.636Z,9.50
2017-10-22T19:35:16.954Z,9.60
2017-10-22T19:37:44.744Z,9.50
2017-10-22T19:40:12.285Z,9.60
2017-10-22T19:42:39.805Z,9.60
2017-10-22T19:45:08.069Z,9.50
2017-10-22T19:47:35.625Z,9.50
2017-10-22T19:50:03.947Z,9.60
2017-10-22T19:52:32.080Z,9.60
2017-10-22T19:54:59.628Z,9.70
2017-10-22T19:57:27.129Z,9.70
2017-10-22T19:59:55.152Z,9.70
2017-10-22T20:02:22.668Z,9.70
2017-10-22T20:04:50.222Z,9.70
2017-10-22T20:07:17.728Z,9.60
2017-10-22T20:09:45.448Z,9.60
2017-10-22T20:12:12.984Z,9.60
2017-10-22T20:14:40.468Z,9.70
2017-10-22T20:17:07.952Z,9.60
2017-10-22T20:19:35.488Z,9.60
2017-10-22T20:22:03.051Z,9.60
2017-10-22T20:24:30.585Z,9.70
2017-10-22T20:26:58.709Z,9.60
2017-10-22T20:29:26.237Z,9.60
2017-10-22T20:31:54.341Z,9.60
2017-10-22T20:34:21.904Z,9.70
2017-10-22T20:36:49.409Z,9.60
2017-10-22T20:39:16.943Z,9.50
2017-10-22T20:41:44.501Z,9.60
2017-10-22T20:44:13.330Z,9.70
2017-10-22T20:46:40.949Z,9.60
2017-10-22T20:49:09.287Z,9.70
2017-10-22T20:51:36.814Z,9.70
2017-10-22T20:54:04.313Z,9.70
2017-10-22T20:56:31.887Z,9.70
2017-10-22T20:58:59.426Z,9.70
2017-10-22T21:01:26.962Z,9.70
2017-10-22T21:03:54.516Z,9.70
2017-10-22T21:06:22.019Z,9.70
2017-10-22T21:08:49.647Z,9.60
2017-10-22T21:11:17.200Z,9.50
2017-10-22T21:13:44.707Z,9.40
2017-10-22T21:16:12.231Z,9.30
2017-10-22T21:18:39.747Z,9.30
2017-10-22T21:21:08.469Z,9.20
2017-10-22T21:23:35.976Z,9.10
2017-10-22T21:26:03.488Z,9.10
2017-10-22T21:28:31.063Z,9.10
2017-10-22T21:30:58.610Z,9.00
2017-10-22T21:33:26.144Z,9.00
2017-10-22T21:35:53.635Z,9.00
2017-10-22T21:38:21.143Z,8.90
2017-10-22T21:40:49.332Z,8.90
2017-10-22T21:43:16.952Z,8.90
2017-10-22T21:45:44.515Z,8.80
2017-10-22T21:48:12.019Z,8.80
2017-10-22T21:50:39.560Z,8.90
2017-10-22T21:53:07.080Z,8.90
2017-10-22T21:55:34.612Z,8.90
2017-10-22T21:58:02.111Z,8.90
2017-10-22T22:00:29.646Z,8.90
2017-10-22T22:02:57.175Z,8.90
2017-10-22T22:05:24.730Z,8.90
2017-10-22T22:07:52.229Z,9.00
2017-10-22T22:10:19.760Z,8.90
2017-10-22T22:12:47.312Z,8.90
2017-10-22T22:15:14.836Z,8.90
2017-10-22T22:17:43.852Z,8.80
2017-10-22T22:20:11.345Z,8.80
2017-10-22T22:22:38.893Z,8.80
2017-10-22T22:25:06.429Z,8.80
2017-10-22T22:27:33.936Z,8.70
2017-10-22T22:30:01.456Z,8.70
2017-10-22T22:32:29.019Z,8.70
2017-10-22T22:34:56.564Z,8.70
2017-10-22T22:37:24.048Z,8.70
2017-10-22T22:39:51.544Z,8.60
2017-10-22T22:42:19.078Z,8.60
2017-10-22T22:44:46.569Z,8.60
2017-10-22T22:47:14.118Z,8.50
2017-10-22T22:49:41.663Z,8.40
2017-10-22T22:52:09.208Z,8.40
2017-10-22T22:54:36.754Z,8.30
2017-10-22T22:57:04.420Z,8.30
2017-10-22T22:59:31.956Z,8.30
2017-10-22T23:01:59.484Z,8.30
2017-10-22T23:04:26.982Z,8.30
2017-10-22T23:06:54.533Z,8.40
2017-10-22T23:09:22.111Z,8.40
2017-10-22T23:11:49.680Z,8.40
2017-10-22T23:14:17.176Z,8.30
2017-10-22T23:16:44.697Z,8.30
2017-10-22T23:19:12.198Z,8.30
2017-10-22T23:21:40.514Z,8.40
2017-10-22T23:24:07.997Z,8.40
2017-10-22T23:26:35.490Z,8.30
2017-10-22T23:29:03.839Z,8.40
2017-10-22T23:31:31.339Z,8.40
2017-10-22T23:33:59.648Z,8.60
2017-10-22T23:36:27.163Z,8.50
2017-10-22T23:38:55.451Z,8.60
2017-10-22T23:41:22.989Z,8.60
2017-10-22T23:43:50.481Z,8.70
2017-10-22T23:46:17.989Z,8.70
2017-10-22T23:48:45.529Z,8.80
2017-10-22T23:51:13.035Z,8.60
2017-10-22T23:53:40.607Z,8.60
2017-10-22T23:56:08.921Z,8.60
2017-10-22T23:58:36.424Z,8.60
